Time;durP1;ratioP1;P1;durP2;ratioP2;P2;SDS_P1;SDS_P2;PMS_P1;PMS_P2;Temp;Humidity;BMP_temperature;BMP_pressure;BME280_temperature;BME280_humidity;BME280_pressure;Samples;Min_cycle;Max_cycle;Signal;HPM_P1;HPM_P2
2019/06/19 00:01:42;;;;;;;5.7;2.9;;;;;;;16.81;86.74512;938.3714;;;;
2019/06/19 00:04:16;;;;;;;4.4;2.6;;;;;;;16.59;86.91309;938.2726;;;;
2019/06/19 00:06:44;;;;;;;4.7;2.3;;;;;;;;;;;;;
2019/06/19 00:09:11;;;;;;;3.1;2.4;;;;;;;;;;;;;
2019/06/19 00:11:33;;;;;;;3.3;1.9;;;;;;;;;;;;;
2019/06/19 00:13:59;;;;;;;4.7;2.2;;;;;;;;;;;;;
2019/06/19 00:16:28;;;;;;;3;2.3;;;;;;;;;;;;;
2019/06/19 00:18:53;;;;;;;3.9;2.3;;;;;;;;;;;;;
2019/06/19 00:21:15;;;;;;;3.5;2.5;;;;;;;;;;;;;
2019/06/19 00:23:43;;;;;;;3;2.4;;;;;;;;;;;;;
2019/06/19 00:26:06;;;;;;;4.7;2.5;;;;;;;;;;;;;
2019/06/19 00:28:33;;;;;;;3.9;2.9;;;;;;;;;;;;;
2019/06/19 00:31:03;;;;;;;4.1;2.7;;;;;;;;;;;;;
2019/06/19 00:33:29;;;;;;;4.3;2;;;;;;;;;;;;;
2019/06/19 00:35:57;;;;;;;3.6;2.1;;;;;;;;;;;;;
2019/06/19 00:38:20;;;;;;;3.6;2.3;;;;;;;;;;;;;
2019/06/19 00:40:47;;;;;;;2.4;2.2;;;;;;;;;;;;;
2019/06/19 00:43:08;;;;;;;3.6;2.5;;;;;;;;;;;;;
2019/06/19 00:45:34;;;;;;;3.3;2.4;;;;;;;;;;;;;
2019/06/19 00:48:04;;;;;;;3.3;2.3;;;;;;;;;;;;;
2019/06/19 00:50:30;;;;;;;3.4;2.5;;;;;;;;;;;;;
2019/06/19 00:52:58;;;;;;;3.5;2.7;;;;;;;;;;;;;
2019/06/19 00:56:05;;;;;;;3.3;2.4;;;;;;;;;;;;;
2019/06/19 00:57:47;;;;;;;2.6;2.3;;;;;;;;;;;;;
2019/06/19 01:00:13;;;;;;;3;2.3;;;;;;;;;;;;;
2019/06/19 01:02:42;;;;;;;4.2;2.8;;;;;;;;;;;;;
2019/06/19 01:05:04;;;;;;;3.5;2.5;;;;;;;;;;;;;
2019/06/19 01:07:37;;;;;;;3.2;2.2;;;;;;;;;;;;;
2019/06/19 01:10:04;;;;;;;3.2;2.4;;;;;;;;;;;;;
2019/06/19 01:12:30;;;;;;;4.1;2.5;;;;;;;;;;;;;
2019/06/19 01:14:57;;;;;;;3;2.4;;;;;;;;;;;;;
2019/06/19 01:17:25;;;;;;;4.2;2.5;;;;;;;;;;;;;
2019/06/19 01:19:51;;;;;;;2.7;2.2;;;;;;;;;;;;;
2019/06/19 01:22:18;;;;;;;4.3;2.4;;;;;;;;;;;;;
2019/06/19 01:24:44;;;;;;;3.4;2.5;;;;;;;;;;;;;
2019/06/19 01:27:08;;;;;;;2.9;2.6;;;;;;;;;;;;;
2019/06/19 01:29:30;;;;;;;3.6;2.5;;;;;;;;;;;;;
2019/06/19 01:31:58;;;;;;;3.4;2.7;;;;;;;;;;;;;
2019/06/19 01:34:23;;;;;;;3.7;2.6;;;;;;;;;;;;;
2019/06/19 01:36:46;;;;;;;3.3;2.9;;;;;;;;;;;;;
2019/06/19 01:39:14;;;;;;;6.2;3.2;;;;;;;;;;;;;
2019/06/19 01:41:40;;;;;;;4;2.8;;;;;;;;;;;;;
2019/06/19 01:44:05;;;;;;;4.3;2.9;;;;;;;;;;;;;
2019/06/19 01:46:31;;;;;;;3.7;2.9;;;;;;;;;;;;;
2019/06/19 01:48:55;;;;;;;3;2.3;;;;;;;;;;;;;
2019/06/19 01:51:26;;;;;;;3.8;2.8;;;;;;;;;;;;;
2019/06/19 01:53:49;;;;;;;4.8;2.8;;;;;;;;;;;;;
2019/06/19 01:56:11;;;;;;;4;2.8;;;;;;;;;;;;;
2019/06/19 01:58:35;;;;;;;4.2;2.9;;;;;;;;;;;;;
2019/06/19 02:01:06;;;;;;;2.8;1.9;;;;;;;;;;;;;
2019/06/19 02:03:27;;;;;;;3.5;2.2;;;;;;;;;;;;;
2019/06/19 02:05:53;;;;;;;4.1;2.5;;;;;;;;;;;;;
2019/06/19 02:08:22;;;;;;;3;2.4;;;;;;;;;;;;;
2019/06/19 02:10:45;;;;;;;3.7;2.4;;;;;;;;;;;;;
2019/06/19 02:13:16;;;;;;;4.3;2.6;;;;;;;;;;;;;
2019/06/19 02:15:40;;;;;;;3;2.5;;;;;;;;;;;;;
2019/06/19 02:18:07;;;;;;;4.5;3;;;;;;;;;;;;;
2019/06/19 02:20:32;;;;;;;6.2;2.6;;;;;;;;;;;;;
2019/06/19 02:22:58;;;;;;;4.6;2.8;;;;;;;;;;;;;
2019/06/19 02:25:23;;;;;;;4;2.9;;;;;;;;;;;;;
2019/06/19 02:27:48;;;;;;;3.1;2.8;;;;;;;;;;;;;
2019/06/19 02:30:15;;;;;;;5.1;3.1;;;;;;;;;;;;;
2019/06/19 02:37:48;;;;;;;3.9;3.4;;;;;;;;;;;;;
2019/06/19 02:40:20;;;;;;;4.5;3.3;;;;;;;;;;;;;
2019/06/19 02:42:49;;;;;;;3.6;3.2;;;;;;;;;;;;;
2019/06/19 02:45:11;;;;;;;4.2;3.2;;;;;;;;;;;;;
2019/06/19 02:47:36;;;;;;;3.5;2.2;;;;;;;;;;;;;
2019/06/19 02:50:01;;;;;;;2.7;2.5;;;;;;;;;;;;;
2019/06/19 02:52:29;;;;;;;3.9;3;;;;;;;;;;;;;
2019/06/19 02:54:54;;;;;;;3.7;2.9;;;;;;;;;;;;;
2019/06/19 02:57:16;;;;;;;4.6;2.6;;;;;;;;;;;;;
2019/06/19 02:59:42;;;;;;;5;2.4;;;;;;;;;;;;;
2019/06/19 03:02:08;;;;;;;3.6;2.7;;;;;;;;;;;;;
2019/06/19 03:04:33;;;;;;;6;2.9;;;;;;;;;;;;;
2019/06/19 03:06:59;;;;;;;4.2;2.7;;;;;;;;;;;;;
2019/06/19 03:09:26;;;;;;;5.1;2.9;;;;;;;;;;;;;
2019/06/19 03:11:52;;;;;;;4.5;2.7;;;;;;;;;;;;;
2019/06/19 03:14:14;;;;;;;2.9;2.6;;;;;;;;;;;;;
2019/06/19 03:16:40;;;;;;;3.5;2.8;;;;;;;;;;;;;
2019/06/19 03:19:07;;;;;;;3.5;2.8;;;;;;;;;;;;;
2019/06/19 03:21:34;;;;;;;3.6;2.8;;;;;;;;;;;;;
2019/06/19 03:24:04;;;;;;;4;2;;;;;;;;;;;;;
2019/06/19 03:26:30;;;;;;;2.6;2.4;;;;;;;;;;;;;
2019/06/19 03:28:58;;;;;;;2.1;1.9;;;;;;;;;;;;;
2019/06/19 03:31:23;;;;;;;2.9;1.9;;;;;;;;;;;;;
2019/06/19 03:33:48;;;;;;;3.6;1.9;;;;;;;;;;;;;
2019/06/19 03:36:16;;;;;;;3.7;2.1;;;;;;;;;;;;;
2019/06/19 03:38:42;;;;;;;2.5;2;;;;;;;;;;;;;
2019/06/19 03:41:04;;;;;;;3.5;2.3;;;;;;;;;;;;;
2019/06/19 03:43:30;;;;;;;4.8;2.3;;;;;;;;;;;;;
2019/06/19 03:45:54;;;;;;;4.2;2.5;;;;;;;;;;;;;
2019/06/19 03:48:21;;;;;;;7.2;2.8;;;;;;;;;;;;;
2019/06/19 03:50:45;;;;;;;7.3;2.3;;;;;;;;;;;;;
2019/06/19 03:53:11;;;;;;;5.6;2.5;;;;;;;;;;;;;
2019/06/19 03:55:37;;;;;;;4.9;2.9;;;;;;;;;;;;;
2019/06/19 03:58:04;;;;;;;5.1;2.7;;;;;;;;;;;;;
2019/06/19 04:02:32;;;;;;;3.8;2.3;;;;;;;16.87;81.82422;936.7598;;;;
2019/06/19 04:05:01;;;;;;;3;1.9;;;;;;;16.55;81.37012;936.6655;;;;
2019/06/19 04:07:32;;;;;;;2.2;1.9;;;;;;;16.87;79.90137;936.7173;;;;
2019/06/19 04:09:59;;;;;;;2.7;1.8;;;;;;;16.82;80.30957;936.6972;;;;
2019/06/19 04:12:31;;;;;;;4.6;2.2;;;;;;;16.92;80.89551;936.5948;;;;
2019/06/19 04:15:05;;;;;;;4.5;2.5;;;;;;;16.94;82.43848;936.5801;;;;
2019/06/19 04:17:34;;;;;;;4.7;2.6;;;;;;;17.21;82.55957;936.5633;;;;
2019/06/19 04:20:06;;;;;;;4.3;2.8;;;;;;;17.35;81.99512;936.6108;;;;
2019/06/19 04:22:37;;;;;;;3.7;2.2;;;;;;;17.27;80.24023;936.6639;;;;
2019/06/19 04:25:06;;;;;;;4.4;2.7;;;;;;;17.25;81.87012;936.6153;;;;
2019/06/19 04:27:45;;;;;;;2.9;2.2;;;;;;;17.35;79.4668;936.5505;;;;
2019/06/19 04:30:16;;;;;;;4.4;2;;;;;;;17.37;79.27246;936.6426;;;;
2019/06/19 04:32:42;;;;;;;6.5;2.6;;;;;;;17.36;81.13867;936.6139;;;;
2019/06/19 04:35:06;;;;;;;4.1;2.5;;;;;;;17.4;80.56641;936.5873;;;;
2019/06/19 04:37:43;;;;;;;2.1;1.7;;;;;;;17.45;76.88574;936.6543;;;;
2019/06/19 04:40:11;;;;;;;3.3;2.1;;;;;;;17.52;78.18652;936.6328;;;;
2019/06/19 04:42:39;;;;;;;3.9;2.4;;;;;;;17.61;80.56836;936.7035;;;;
2019/06/19 04:45:05;;;;;;;4.6;2.6;;;;;;;17.6;81.61133;936.6143;;;;
2019/06/19 04:47:38;;;;;;;7;2.5;;;;;;;17.68;80.67578;936.6945;;;;
2019/06/19 04:50:02;;;;;;;3;2.5;;;;;;;17.62;80.33984;936.6415;;;;
2019/06/19 04:52:32;;;;;;;3.7;2.2;;;;;;;17.8;79.03711;936.6623;;;;
2019/06/19 04:55:00;;;;;;;3.9;2.2;;;;;;;17.67;79.68652;936.6139;;;;
2019/06/19 04:57:30;;;;;;;5.4;2.5;;;;;;;17.97;79.28906;936.6671;;;;
2019/06/19 05:00:04;;;;;;;6.1;2.4;;;;;;;17.76;80.2832;936.5778;;;;
2019/06/19 05:02:36;;;;;;;5.2;2.9;;;;;;;17.88;80.44531;936.6697;;;;
2019/06/19 05:05:07;;;;;;;3.8;2.4;;;;;;;18;80.04688;936.5432;;;;
2019/06/19 05:07:44;;;;;;;4.4;2.2;;;;;;;17.83;79.81836;936.5695;;;;
2019/06/19 05:10:11;;;;;;;4.8;2.4;;;;;;;17.78;80.2627;936.6136;;;;
2019/06/19 05:12:39;;;;;;;4.2;2.6;;;;;;;18.03;81.05273;936.6209;;;;
2019/06/19 05:15:21;;;;;;;3.7;2.3;;;;;;;18.04;79.52246;936.5466;;;;
2019/06/19 05:17:54;;;;;;;5.6;2.6;;;;;;;18.34;78.38965;936.47;;;;
2019/06/19 05:25:23;;;;;;;5.4;2.6;;;;;;;18.06;80.56934;936.493;;;;
2019/06/19 05:27:53;;;;;;;5;2.6;;;;;;;18.14;80.51465;936.4486;;;;
2019/06/19 05:30:19;;;;;;;6.7;3.2;;;;;;;17.96;81.44727;936.432;;;;
2019/06/19 05:32:47;;;;;;;5.2;2.8;;;;;;;18.03;80.28809;936.3799;;;;
2019/06/19 05:35:24;;;;;;;4.8;2.9;;;;;;;18.18;81.75293;936.3574;;;;
2019/06/19 05:37:54;;;;;;;7.5;3.2;;;;;;;18.36;79.6709;936.3945;;;;
2019/06/19 05:40:17;;;;;;;4.4;3;;;;;;;18.45;80.03613;936.392;;;;
2019/06/19 05:42:52;;;;;;;3.7;2.6;;;;;;;18.28;80.46973;936.465;;;;
2019/06/19 05:45:23;;;;;;;4.1;2.8;;;;;;;18.39;80.82813;936.4035;;;;
2019/06/19 05:47:47;;;;;;;5.7;2.5;;;;;;;18.35;80.54297;936.344;;;;
2019/06/19 05:50:20;;;;;;;4.8;2.5;;;;;;;18.61;80.15918;936.3533;;;;
2019/06/19 05:52:49;;;;;;;5.7;2.1;;;;;;;18.57;78.33789;936.3156;;;;
2019/06/19 05:55:15;;;;;;;7.2;2.5;;;;;;;18.71;77.55957;936.2545;;;;
2019/06/19 05:57:46;;;;;;;10.5;2.4;;;;;;;18.69;78.92871;936.2189;;;;
2019/06/19 06:00:09;;;;;;;5.3;3.4;;;;;;;18.85;78.30664;936.215;;;;
2019/06/19 06:02:39;;;;;;;10.9;5.1;;;;;;;18.89;78.68555;936.2428;;;;
2019/06/19 06:05:07;;;;;;;10.1;4.9;;;;;;;19.07;78.41602;936.1861;;;;
2019/06/19 06:07:45;;;;;;;7.7;4.3;;;;;;;19.04;78.95703;936.2985;;;;
2019/06/19 06:10:21;;;;;;;6.7;4;;;;;;;19.08;78.34668;936.2367;;;;
2019/06/19 06:12:55;;;;;;;5.8;3.6;;;;;;;19.15;77.76563;936.2625;;;;
2019/06/19 06:15:24;;;;;;;6.7;3.3;;;;;;;19.17;77.66406;936.1989;;;;
2019/06/19 06:17:54;;;;;;;4.1;2.3;;;;;;;19.16;74.91504;936.325;;;;
2019/06/19 06:20:29;;;;;;;4.2;2.2;;;;;;;19.21;75.12109;936.323;;;;
2019/06/19 06:22:52;;;;;;;4.4;2.3;;;;;;;19.51;75.38184;936.3136;;;;
2019/06/19 06:25:19;;;;;;;5.1;2.2;;;;;;;19.86;74.91699;936.2156;;;;
2019/06/19 06:27:49;;;;;;;4;2.1;;;;;;;20.06;72.66309;936.2495;;;;
2019/06/19 06:30:14;;;;;;;5.6;2.3;;;;;;;20.18;72.29785;936.1902;;;;
2019/06/19 06:32:45;;;;;;;5.5;2;;;;;;;20.12;71.44824;936.2104;;;;
2019/06/19 06:35:10;;;;;;;5.6;1.9;;;;;;;20.15;72.50293;936.254;;;;
2019/06/19 06:37:49;;;;;;;3.7;1.8;;;;;;;20.93;68.28223;936.2594;;;;
2019/06/19 06:40:24;;;;;;;3.6;1.5;;;;;;;22.28;65.19434;936.1563;;;;
2019/06/19 06:42:51;;;;;;;4.1;1.9;;;;;;;22.65;66.16406;936.2281;;;;
2019/06/19 06:45:22;;;;;;;4.6;1.7;;;;;;;23.69;63.37793;936.2147;;;;
2019/06/19 06:47:55;;;;;;;4.5;1.8;;;;;;;24.86;55.58105;936.2018;;;;
2019/06/19 06:50:20;;;;;;;3;1.6;;;;;;;25.78;52.66992;936.1022;;;;
2019/06/19 06:52:50;;;;;;;3;1.2;;;;;;;26.13;49.32715;936.1077;;;;
2019/06/19 06:55:23;;;;;;;6.6;1.5;;;;;;;26.38;48.125;936.0062;;;;
2019/06/19 06:57:54;;;;;;;4.7;1.3;;;;;;;27.09;48.14258;935.9959;;;;
2019/06/19 07:00:26;;;;;;;6.6;1.6;;;;;;;28.73;44.36816;936.0049;;;;
2019/06/19 07:03:00;;;;;;;7.2;1.4;;;;;;;30.12;41.03125;935.9617;;;;
2019/06/19 07:05:25;;;;;;;6.6;1.4;;;;;;;30.41;38.39453;935.9063;;;;
2019/06/19 07:08:02;;;;;;;3.4;1.1;;;;;;;30.58;37.45313;935.875;;;;
2019/06/19 07:10:25;;;;;;;3.6;1.1;;;;;;;31.03;37.71875;935.8469;;;;
2019/06/19 07:12:59;;;;;;;5.1;1.3;;;;;;;30.91;37.7666;935.7521;;;;
2019/06/19 07:15:24;;;;;;;7.9;1.3;;;;;;;31.6;35.3584;935.7486;;;;
2019/06/19 07:17:58;;;;;;;4.5;1.2;;;;;;;31.35;36.73828;935.7195;;;;
2019/06/19 07:20:30;;;;;;;4.3;1.1;;;;;;;30.81;36.55176;935.7421;;;;
2019/06/19 07:23:00;;;;;;;3.9;1.2;;;;;;;30.45;41.15723;935.7628;;;;
2019/06/19 07:25:28;;;;;;;7.5;1.4;;;;;;;32.03;35.79883;935.7058;;;;
2019/06/19 07:28:00;;;;;;;5.6;1.2;;;;;;;32.82;36.6416;935.6506;;;;
2019/06/19 07:30:23;;;;;;;3.9;1.2;;;;;;;33.66;34.74902;935.7388;;;;
2019/06/19 07:32:50;;;;;;;5.1;1.3;;;;;;;33.93;35.0957;935.6767;;;;
2019/06/19 07:35:23;;;;;;;3.5;1.1;;;;;;;34.2;36.45215;935.6422;;;;
2019/06/19 07:37:50;;;;;;;4.2;0.9;;;;;;;34.23;34.68359;935.5583;;;;
2019/06/19 07:40:25;;;;;;;3;1;;;;;;;33.82;31.01855;935.5398;;;;
2019/06/19 07:42:55;;;;;;;1.8;1;;;;;;;33.17;29.35254;935.5369;;;;
2019/06/19 07:45:23;;;;;;;3.3;1;;;;;;;33.76;31.75;935.5291;;;;
2019/06/19 07:47:52;;;;;;;4.6;0.9;;;;;;;33.75;32.39746;935.438;;;;
2019/06/19 07:50:26;;;;;;;1.8;1;;;;;;;34.92;30.28613;935.3606;;;;
2019/06/19 07:52:58;;;;;;;2.7;1;;;;;;;34.74;26.92285;935.4042;;;;
2019/06/19 07:55:41;;;;;;;2.5;1;;;;;;;35.16;27.76758;935.4291;;;;
2019/06/19 07:58:14;;;;;;;3.5;1;;;;;;;35.29;27.00293;935.3886;;;;
2019/06/19 08:00:46;;;;;;;3.9;0.9;;;;;;;35.21;29.70215;935.3467;;;;
2019/06/19 08:03:20;;;;;;;4.1;0.9;;;;;;;33.92;29.60547;935.3531;;;;
2019/06/19 08:05:50;;;;;;;4;0.9;;;;;;;33.29;32.4248;935.4556;;;;
2019/06/19 08:08:24;;;;;;;3.5;1.1;;;;;;;33.51;32.41699;935.3872;;;;
2019/06/19 08:10:49;;;;;;;2.2;0.9;;;;;;;32.59;32.81934;935.3279;;;;
2019/06/19 08:13:18;;;;;;;2.9;0.9;;;;;;;33.24;28.98535;935.3983;;;;
2019/06/19 08:15:44;;;;;;;2.2;0.9;;;;;;;34.56;30.59961;935.325;;;;
2019/06/19 08:18:17;;;;;;;3.4;0.9;;;;;;;35.3;27.40234;935.2319;;;;
2019/06/19 08:20:44;;;;;;;1.6;0.9;;;;;;;35.5;27.34082;935.1848;;;;
2019/06/19 08:23:15;;;;;;;3;1;;;;;;;34.85;28.26758;935.2022;;;;
2019/06/19 08:25:42;;;;;;;1.9;0.9;;;;;;;34.86;29.78711;935.1609;;;;
2019/06/19 08:28:16;;;;;;;2.3;0.8;;;;;;;34.38;28.27441;935.1545;;;;
2019/06/19 08:30:40;;;;;;;1.5;0.8;;;;;;;33.82;29.65918;935.1167;;;;
2019/06/19 08:33:19;;;;;;;2.4;0.9;;;;;;;34.23;30.50488;935.0806;;;;
2019/06/19 08:35:44;;;;;;;12.4;4.2;;;;;;;35.44;26.43262;934.9702;;;;
2019/06/19 08:38:13;;;;;;;1.8;0.9;;;;;;;36.32;25.3457;934.9922;;;;
2019/06/19 08:40:43;;;;;;;3.6;0.9;;;;;;;35.39;24.5332;934.8801;;;;
2019/06/19 08:43:15;;;;;;;2;0.8;;;;;;;35.66;25.88867;935.0069;;;;
2019/06/19 08:45:47;;;;;;;2.9;0.9;;;;;;;36.11;24.69336;934.9863;;;;
2019/06/19 08:48:19;;;;;;;1.3;0.7;;;;;;;36.13;23.93262;934.9698;;;;
2019/06/19 08:50:44;;;;;;;0.9;0.8;;;;;;;35.62;24.01465;934.9706;;;;
2019/06/19 08:53:15;;;;;;;2.9;0.9;;;;;;;36.24;24.53125;934.928;;;;
2019/06/19 08:55:48;;;;;;;3.3;0.9;;;;;;;35.15;27.94727;934.9498;;;;
2019/06/19 08:58:22;;;;;;;2.3;1;;;;;;;34.99;26.9375;934.9271;;;;
2019/06/19 09:00:53;;;;;;;2.8;0.9;;;;;;;35.15;27.66992;934.9498;;;;
2019/06/19 09:03:22;;;;;;;2.9;0.9;;;;;;;34.94;23.82227;934.9549;;;;
2019/06/19 09:05:56;;;;;;;2.3;0.9;;;;;;;34.42;29.37402;935.0172;;;;
2019/06/19 09:08:28;;;;;;;3.4;0.8;;;;;;;34;26.68652;934.9401;;;;
2019/06/19 09:11:02;;;;;;;1.5;0.9;;;;;;;33.32;31.06934;934.9889;;;;
2019/06/19 09:13:34;;;;;;;2.9;1;;;;;;;33.41;27.5293;934.9172;;;;
2019/06/19 09:15:49;;;;;;;2.8;0.9;;;;;;;33.16;28.04297;934.9256;;;;
2019/06/19 09:18:19;;;;;;;2.2;0.8;;;;;;;33.3;26.24805;935.0011;;;;
2019/06/19 09:20:57;;;;;;;2.2;1;;;;;;;32.76;27.02148;934.94;;;;
2019/06/19 09:23:22;;;;;;;2;0.9;;;;;;;32.5;28.70996;934.9139;;;;
2019/06/19 09:25:55;;;;;;;1;0.8;;;;;;;32.21;30.05859;934.8716;;;;
2019/06/19 09:28:20;;;;;;;2.9;0.9;;;;;;;31.75;30.87891;934.8606;;;;
2019/06/19 09:30:51;;;;;;;2.3;0.9;;;;;;;31.87;29.61621;934.8922;;;;
2019/06/19 09:33:25;;;;;;;1.5;0.8;;;;;;;31.42;28.89258;934.868;;;;
2019/06/19 09:35:52;;;;;;;1.3;0.8;;;;;;;31.54;29.42773;934.8681;;;;
2019/06/19 09:38:30;;;;;;;2.4;1;;;;;;;31.49;27.7002;934.8029;;;;
2019/06/19 09:41:03;;;;;;;1.5;0.9;;;;;;;31.76;25.20117;934.767;;;;
2019/06/19 09:43:26;;;;;;;2.7;0.8;;;;;;;32.18;26.71191;934.8153;;;;
2019/06/19 09:45:58;;;;;;;1.2;0.8;;;;;;;31.67;25.04102;934.7612;;;;
2019/06/19 09:48:30;;;;;;;1.1;0.8;;;;;;;30.83;27.14648;934.7658;;;;
2019/06/19 09:51:02;;;;;;;1.5;0.9;;;;;;;30.34;29.46875;934.7275;;;;
2019/06/19 09:53:35;;;;;;;2.7;0.9;;;;;;;29.61;26.54883;934.7377;;;;
2019/06/19 09:56:06;;;;;;;2.6;1.1;;;;;;;29.84;30.75977;934.6975;;;;
2019/06/19 09:58:34;;;;;;;1.5;0.8;;;;;;;30.22;25.77246;934.7006;;;;
2019/06/19 10:01:05;;;;;;;1.7;0.8;;;;;;;30.83;26.97852;934.6815;;;;
2019/06/19 10:03:32;;;;;;;2.5;0.8;;;;;;;30.45;27.25488;934.7425;;;;
2019/06/19 10:06:06;;;;;;;4;1.1;;;;;;;30.64;25.40137;934.7216;;;;
2019/06/19 10:08:32;;;;;;;1.2;0.8;;;;;;;30.72;28.38281;934.68;;;;
2019/06/19 10:11:06;;;;;;;1.1;0.8;;;;;;;30.89;29.02637;934.6365;;;;
2019/06/19 10:13:29;;;;;;;1.1;0.7;;;;;;;31.25;25.63965;934.6806;;;;
2019/06/19 10:16:01;;;;;;;1.4;0.8;;;;;;;31.5;28.08398;934.6566;;;;
2019/06/19 10:18:32;;;;;;;2.2;0.9;;;;;;;31.32;29.46094;934.6903;;;;
2019/06/19 10:20:57;;;;;;;2.4;0.9;;;;;;;31.25;27.85352;934.6713;;;;
2019/06/19 10:23:26;;;;;;;1.9;0.9;;;;;;;31.55;29.17676;934.7008;;;;
2019/06/19 10:25:53;;;;;;;3.3;0.9;;;;;;;31.69;32.49121;934.6306;;;;
2019/06/19 10:28:19;;;;;;;2.7;0.9;;;;;;;31.29;28.62207;934.7037;;;;
2019/06/19 10:30:46;;;;;;;4;0.8;;;;;;;31.33;30.95703;934.7928;;;;
2019/06/19 10:33:20;;;;;;;1.2;0.9;;;;;;;31.67;31.77148;934.8101;;;;
2019/06/19 10:35:44;;;;;;;1.3;0.8;;;;;;;31.89;30.9834;934.7562;;;;
2019/06/19 10:38:15;;;;;;;4.7;1;;;;;;;32.18;29.18164;934.8377;;;;
2019/06/19 10:40:45;;;;;;;1;0.8;;;;;;;32.01;29.21875;934.7372;;;;
2019/06/19 10:43:15;;;;;;;1.1;0.8;;;;;;;31.86;27.29199;934.7527;;;;
2019/06/19 10:45:44;;;;;;;1;0.8;;;;;;;31.12;29.48438;934.7605;;;;
2019/06/19 10:48:19;;;;;;;1.2;0.9;;;;;;;30.55;27.83398;934.7153;;;;
2019/06/19 10:50:50;;;;;;;1.1;0.8;;;;;;;30.42;27.89746;934.682;;;;
2019/06/19 10:53:24;;;;;;;2.1;0.8;;;;;;;30.52;29.82715;934.6498;;;;
2019/06/19 10:55:52;;;;;;;2;0.9;;;;;;;31;29.55957;934.651;;;;
2019/06/19 10:58:38;;;;;;;1.8;0.9;;;;;;;31.47;27.04102;934.5964;;;;
2019/06/19 11:01:12;;;;;;;1.2;0.7;;;;;;;31.67;28.22559;934.6086;;;;
2019/06/19 11:03:42;;;;;;;3;1.2;;;;;;;31.55;27.22461;934.5242;;;;
2019/06/19 11:06:22;;;;;;;1.7;1;;;;;;;31.72;27.29492;934.4935;;;;
2019/06/19 11:08:52;;;;;;;2.3;0.9;;;;;;;31.92;27.75;934.4869;;;;
2019/06/19 11:11:33;;;;;;;2.4;0.9;;;;;;;32.15;27.74023;934.4665;;;;
2019/06/19 11:14:06;;;;;;;1.1;0.9;;;;;;;32.51;29.71875;934.4428;;;;
2019/06/19 11:16:49;;;;;;;1.9;0.9;;;;;;;32.4;26.53223;934.4667;;;;
2019/06/19 11:19:10;;;;;;;1.9;0.9;;;;;;;31.91;28.19336;934.4316;;;;
2019/06/19 11:21:49;;;;;;;2.2;0.9;;;;;;;31.46;25.85547;934.3608;;;;
2019/06/19 11:24:13;;;;;;;1.5;1;;;;;;;31.25;26.46484;934.4567;;;;
2019/06/19 11:26:40;;;;;;;2.6;0.9;;;;;;;31.14;26.75781;934.468;;;;
2019/06/19 11:29:10;;;;;;;4;0.9;;;;;;;31.51;27.50977;934.4391;;;;
2019/06/19 11:31:44;;;;;;;2.7;0.9;;;;;;;31.88;25.56738;934.4111;;;;
2019/06/19 11:34:26;;;;;;;2.3;1.1;;;;;;;32.17;25.1875;934.4319;;;;
2019/06/19 11:37:01;;;;;;;3;0.9;;;;;;;32.51;26.7666;934.4204;;;;
2019/06/19 11:39:26;;;;;;;2;1;;;;;;;32.63;28.81445;934.4537;;;;
2019/06/19 11:42:06;;;;;;;1.4;0.9;;;;;;;32.87;24.96289;934.3962;;;;
2019/06/19 11:44:48;;;;;;;2.1;1;;;;;;;32.91;24.07715;934.3967;;;;
2019/06/19 11:47:21;;;;;;;1.4;1;;;;;;;32.91;26.20215;934.274;;;;
2019/06/19 11:49:58;;;;;;;1.6;0.9;;;;;;;32.98;25.54492;934.3268;;;;
2019/06/19 11:52:29;;;;;;;2.3;0.9;;;;;;;32.9;25.60059;934.3336;;;;
2019/06/19 11:54:57;;;;;;;5.8;1.8;;;;;;;32.57;28.22168;934.4141;;;;
2019/06/19 11:57:24;;;;;;;1.6;0.8;;;;;;;32.07;27.28027;934.3491;;;;
2019/06/19 12:00:03;;;;;;;2.6;0.9;;;;;;;31.91;28.7207;934.375;;;;
2019/06/19 12:02:46;;;;;;;3.7;1;;;;;;;31.87;26.50195;934.3558;;;;
2019/06/19 12:05:29;;;;;;;3.6;1;;;;;;;31.7;27.70117;934.3433;;;;
2019/06/19 12:08:01;;;;;;;3.5;1;;;;;;;31.3;29.29199;934.3679;;;;
2019/06/19 12:10:30;;;;;;;2;0.9;;;;;;;31.31;26.82813;934.2928;;;;
2019/06/19 12:13:01;;;;;;;1.3;0.9;;;;;;;31.71;29.01953;934.3761;;;;
2019/06/19 12:15:34;;;;;;;1.8;1;;;;;;;32.47;26.7998;934.3709;;;;
2019/06/19 12:17:57;;;;;;;2.5;1;;;;;;;32.98;27.37012;934.3531;;;;
2019/06/19 12:20:22;;;;;;;3.1;1.1;;;;;;;33.05;24.57617;934.3495;;;;
2019/06/19 12:22:48;;;;;;;1.6;1;;;;;;;33.45;25.7041;934.2495;;;;
2019/06/19 12:25:20;;;;;;;1.9;1.3;;;;;;;33.52;24.24023;934.2548;;;;
2019/06/19 12:27:53;;;;;;;8.1;7.3;;;;;;;33.74;23.7959;934.2593;;;;
2019/06/19 12:30:27;;;;;;;4;2.1;;;;;;;33.81;22.74023;934.2155;;;;
2019/06/19 12:32:58;;;;;;;1.4;0.8;;;;;;;33.7;25.26172;934.1308;;;;
2019/06/19 12:35:31;;;;;;;2.1;1.3;;;;;;;33.82;22.77734;934.0897;;;;
2019/06/19 12:38:06;;;;;;;2.5;0.9;;;;;;;33.59;25.86816;934.1474;;;;
2019/06/19 12:40:42;;;;;;;1.8;1;;;;;;;33.68;23.55176;934.0466;;;;
2019/06/19 12:43:08;;;;;;;4;1.2;;;;;;;33.64;23.08008;934.0553;;;;
2019/06/19 12:45:43;;;;;;;1.8;1.1;;;;;;;33.19;25.10059;933.9914;;;;
2019/06/19 12:48:16;;;;;;;1.1;0.9;;;;;;;33.28;26.89648;933.9964;;;;
2019/06/19 12:50:55;;;;;;;1.3;0.9;;;;;;;33.05;27.71191;933.9573;;;;
2019/06/19 12:53:29;;;;;;;1.3;1;;;;;;;32.82;24.76758;933.8914;;;;
2019/06/19 12:56:04;;;;;;;2.7;1.1;;;;;;;32.98;23.94824;933.8726;;;;
2019/06/19 12:58:45;;;;;;;4;1;;;;;;;32.82;24.50391;933.8519;;;;
2019/06/19 13:01:19;;;;;;;1.4;1.1;;;;;;;32.95;24.37891;933.8799;;;;
2019/06/19 13:03:44;;;;;;;2.1;1.1;;;;;;;32.96;26.0127;933.8428;;;;
2019/06/19 13:06:18;;;;;;;1.2;0.9;;;;;;;33;26.11133;933.8789;;;;
2019/06/19 13:08:59;;;;;;;2.4;1.1;;;;;;;32.86;24.51855;933.8395;;;;
2019/06/19 13:11:29;;;;;;;2.1;1.1;;;;;;;32.4;26.56836;933.822;;;;
2019/06/19 13:13:56;;;;;;;3.4;1.1;;;;;;;32.71;26.4668;933.8194;;;;
2019/06/19 13:16:28;;;;;;;1.9;1.1;;;;;;;32.92;26.05859;933.7841;;;;
2019/06/19 13:19:01;;;;;;;2;1.1;;;;;;;32.94;25.36328;933.7494;;;;
2019/06/19 13:21:35;;;;;;;2.6;1.2;;;;;;;32.82;27.08496;933.7277;;;;
2019/06/19 13:24:13;;;;;;;2.3;1;;;;;;;32.52;26.7666;933.7462;;;;
2019/06/19 13:26:38;;;;;;;2.3;1.1;;;;;;;32.61;26.79688;933.7364;;;;
2019/06/19 13:29:12;;;;;;;2.3;1;;;;;;;32.59;29.32813;933.6788;;;;
2019/06/19 13:31:44;;;;;;;2.4;0.9;;;;;;;32.65;27.7832;933.6595;;;;
2019/06/19 13:34:11;;;;;;;2.1;1.1;;;;;;;32.7;28.05078;933.6322;;;;
2019/06/19 13:36:39;;;;;;;2.4;1;;;;;;;32.61;25.60938;933.5781;;;;
2019/06/19 13:39:02;;;;;;;3.9;1.1;;;;;;;32.76;27.57324;933.6165;;;;
2019/06/19 13:41:36;;;;;;;3.2;1;;;;;;;32.84;28.21582;933.5745;;;;
2019/06/19 13:44:14;;;;;;;1.6;1.1;;;;;;;32.86;27.31641;933.6453;;;;
2019/06/19 13:46:40;;;;;;;1.3;1;;;;;;;32.83;27.56641;933.6378;;;;
2019/06/19 13:49:12;;;;;;;1.7;1.1;;;;;;;32.68;26.98047;933.5745;;;;
2019/06/19 13:51:45;;;;;;;2.5;1.1;;;;;;;32.35;24.98242;933.5631;;;;
2019/06/19 13:54:21;;;;;;;1.9;0.9;;;;;;;32.13;26.03711;933.5466;;;;
2019/06/19 13:56:58;;;;;;;1.8;1.1;;;;;;;32.1;26.01172;933.5485;;;;
2019/06/19 13:59:46;;;;;;;2.6;1.1;;;;;;;32.26;28.73047;933.4615;;;;
2019/06/19 14:02:27;;;;;;;4.1;1.1;;;;;;;32.13;29.54883;933.5256;;;;
2019/06/19 14:04:58;;;;;;;2.6;1.2;;;;;;;32.1;29.2959;933.5432;;;;
2019/06/19 14:07:33;;;;;;;2.3;1.1;;;;;;;32.04;29.3877;933.4361;;;;
2019/06/19 14:10:02;;;;;;;5.3;1.3;;;;;;;31.97;29.94629;933.4673;;;;
2019/06/19 14:12:30;;;;;;;2.7;1.1;;;;;;;32;28.29492;933.3731;;;;
2019/06/19 14:15:08;;;;;;;1.6;1;;;;;;;32.05;29.11328;933.3766;;;;
2019/06/19 14:17:44;;;;;;;3.6;1.1;;;;;;;31.83;28.73926;933.3481;;;;
2019/06/19 14:20:11;;;;;;;3.7;1.1;;;;;;;31.17;30.06152;933.4044;;;;
2019/06/19 14:22:48;;;;;;;10.1;1.8;;;;;;;30.84;30.34961;933.3701;;;;
2019/06/19 14:25:21;;;;;;;2.8;1.3;;;;;;;31.07;30.22168;933.2791;;;;
2019/06/19 14:27:55;;;;;;;5.3;1.4;;;;;;;31.25;30.30566;933.2679;;;;
2019/06/19 14:30:19;;;;;;;4.3;1.9;;;;;;;31.2;30.03906;933.3381;;;;
2019/06/19 14:32:52;;;;;;;2.4;1.5;;;;;;;31.35;29.1875;933.2797;;;;
2019/06/19 14:35:23;;;;;;;2.2;1.2;;;;;;;31.22;29.69336;933.1998;;;;
2019/06/19 14:37:49;;;;;;;2.7;1.3;;;;;;;31.23;30.96289;933.293;;;;
2019/06/19 14:40:16;;;;;;;3.7;1.3;;;;;;;31.13;29.87891;933.2375;;;;
2019/06/19 14:42:59;;;;;;;2.2;1.2;;;;;;;30.88;28.54785;933.1959;;;;
2019/06/19 14:45:27;;;;;;;2.6;1.2;;;;;;;30.54;28.04883;933.1295;;;;
2019/06/19 14:47:57;;;;;;;2.8;2.3;;;;;;;30.66;29.50098;933.1445;;;;
2019/06/19 14:50:22;;;;;;;2.1;1.3;;;;;;;30.73;28.74121;933.1805;;;;
2019/06/19 14:52:51;;;;;;;2.8;1.3;;;;;;;30.68;30.60254;933.1627;;;;
2019/06/19 14:55:27;;;;;;;2;1.3;;;;;;;30.39;29.87793;933.1756;;;;
2019/06/19 14:57:55;;;;;;;5.1;1.2;;;;;;;30.51;31.2832;933.1233;;;;
2019/06/19 15:00:24;;;;;;;3.3;1.3;;;;;;;30.41;32.45898;933.1359;;;;
2019/06/19 15:02:55;;;;;;;2.5;1.4;;;;;;;30.19;32.41895;933.0067;;;;
2019/06/19 15:05:29;;;;;;;3.1;1.3;;;;;;;29.9;32.79199;933.0405;;;;
2019/06/19 15:08:03;;;;;;;3;1.3;;;;;;;29.76;32.29395;933.0428;;;;
2019/06/19 15:10:39;;;;;;;4.5;1.5;;;;;;;29.6;33.72461;933.0189;;;;
2019/06/19 15:13:07;;;;;;;2.8;1.6;;;;;;;29.74;32.68555;932.9642;;;;
2019/06/19 15:15:35;;;;;;;5.6;1.6;;;;;;;29.79;33.41699;932.902;;;;
2019/06/19 15:18:02;;;;;;;3.3;1.3;;;;;;;29.82;32.36914;932.8702;;;;
2019/06/19 15:20:33;;;;;;;4.3;1.6;;;;;;;29.94;33.94043;932.9285;;;;
2019/06/19 15:22:59;;;;;;;2.5;1.6;;;;;;;29.99;33.49121;932.8624;;;;
2019/06/19 15:25:32;;;;;;;4.8;1.6;;;;;;;30.07;31.57617;932.8569;;;;
2019/06/19 15:28:03;;;;;;;1.6;1.4;;;;;;;30.08;31.6123;932.8278;;;;
2019/06/19 15:30:58;;;;;;;3.1;1.6;;;;;;;29.97;31.46094;932.7955;;;;
2019/06/19 15:33:30;;;;;;;4.8;1.6;;;;;;;29.8;33.01074;932.8574;;;;
2019/06/19 15:35:59;;;;;;;3.1;1.6;;;;;;;29.53;33.79102;932.8304;;;;
2019/06/19 15:38:55;;;;;;;5.7;1.7;;;;;;;29.46;34.35742;932.8297;;;;
2019/06/19 15:41:23;;;;;;;5;1.7;;;;;;;29.49;32.89355;932.8912;;;;
2019/06/19 15:44:00;;;;;;;3.5;1.7;;;;;;;29.32;31.8916;932.8382;;;;
2019/06/19 15:46:34;;;;;;;4.8;2.2;;;;;;;29.16;31.19043;932.8482;;;;
2019/06/19 15:49:08;;;;;;;4.1;2.1;;;;;;;29.1;31.16211;932.9169;;;;
2019/06/19 15:58:07;;;;;;;3.2;1.5;;;;;;;28.77;34.62598;932.8039;;;;
2019/06/19 16:00:37;;;;;;;3.9;1.6;;;;;;;28.72;33.99121;932.7648;;;;
2019/06/19 16:03:03;;;;;;;5.7;1.8;;;;;;;28.73;34.49219;932.8014;;;;
2019/06/19 16:05:36;;;;;;;3.1;2;;;;;;;28.69;34.12012;932.7742;;;;
2019/06/19 16:08:10;;;;;;;3.7;1.8;;;;;;;28.64;35.8418;932.8215;;;;
2019/06/19 16:10:52;;;;;;;7.7;3;;;;;;;28.49;35.78223;932.8522;;;;
2019/06/19 16:13:30;;;;;;;3.7;2;;;;;;;28.16;36.95605;932.7961;;;;